Time;durP1;ratioP1;P1;durP2;ratioP2;P2;SDS_P1;SDS_P2;PMS_P1;PMS_P2;Temp;Humidity;BMP_temperature;BMP_pressure;BME280_temperature;BME280_humidity;BME280_pressure;Samples;Min_cycle;Max_cycle;Signal;HPM_P1;HPM_P2
2022/08/20 09:46:53;;;;;;;7.03;1.60;;;20.40;91.10;;;;;;5066735;28;20441;-50
2022/08/20 09:49:20;;;;;;;5.18;1.23;;;20.40;91.20;;;;;;5051230;28;20045;-45
2022/08/20 09:51:47;;;;;;;5.70;1.80;;;20.50;91.30;;;;;;5058868;28;20488;-51
2022/08/20 09:54:13;;;;;;;6.88;1.20;;;20.70;90.60;;;;;;5065893;28;20052;-46
2022/08/20 09:56:40;;;;;;;7.65;1.70;;;21.00;91.00;;;;;;5068670;28;20079;-41
2022/08/20 09:59:09;;;;;;;5.88;1.30;;;21.30;90.10;;;;;;5069754;28;20483;-40
2022/08/20 10:01:36;;;;;;;6.88;1.48;;;21.40;89.30;;;;;;5056410;28;20091;-41
2022/08/20 10:04:03;;;;;;;6.07;1.33;;;21.60;89.60;;;;;;5061895;28;20431;-44
2022/08/20 10:06:30;;;;;;;6.30;1.50;;;21.60;88.80;;;;;;5043543;28;20428;-46
2022/08/20 10:09:02;;;;;;;5.40;1.30;;;21.70;88.40;;;;;;5045451;28;20036;-45
2022/08/20 10:11:29;;;;;;;5.63;1.33;;;21.60;88.90;;;;;;5049838;28;20037;-42
2022/08/20 10:13:56;;;;;;;5.85;1.33;;;21.70;87.40;;;;;;5056176;28;20048;-39
2022/08/20 10:16:23;;;;;;;5.28;1.40;;;21.70;88.20;;;;;;5046583;28;20091;-41
2022/08/20 10:18:50;;;;;;;5.00;1.50;;;21.70;87.70;;;;;;5050245;28;20042;-40
2022/08/20 10:21:17;;;;;;;8.15;1.60;;;21.70;88.40;;;;;;5049982;28;20407;-43
2022/08/20 10:23:44;;;;;;;6.28;1.65;;;21.80;87.50;;;;;;5049581;28;20037;-40
2022/08/20 10:26:11;;;;;;;6.55;1.75;;;21.80;88.00;;;;;;5049769;28;20052;-46
2022/08/20 10:28:37;;;;;;;5.97;1.50;;;21.80;87.50;;;;;;5050482;28;20464;-46
2022/08/20 10:31:04;;;;;;;8.05;1.67;;;21.80;87.00;;;;;;5049804;28;20037;-46
2022/08/20 10:33:33;;;;;;;8.40;1.75;;;21.80;87.80;;;;;;5049930;28;20129;-45
2022/08/20 10:36:00;;;;;;;4.75;1.23;;;21.90;87.20;;;;;;5049919;28;20037;-49
2022/08/20 10:38:27;;;;;;;7.35;1.58;;;22.10;86.90;;;;;;5047701;28;20087;-38
2022/08/20 10:40:53;;;;;;;7.55;1.60;;;22.30;87.00;;;;;;5049046;28;20049;-43
2022/08/20 10:43:20;;;;;;;4.60;1.58;;;22.50;86.10;;;;;;5043204;28;20037;-46
2022/08/20 10:45:47;;;;;;;9.52;1.90;;;22.60;85.50;;;;;;5034323;28;20056;-40
2022/08/20 10:48:14;;;;;;;6.30;1.52;;;22.50;85.70;;;;;;5054853;28;20124;-42
2022/08/20 10:50:46;;;;;;;6.97;1.55;;;22.50;85.70;;;;;;5036665;28;20037;-40
2022/08/20 10:53:13;;;;;;;8.02;1.52;;;22.50;86.20;;;;;;5048901;28;20041;-44
2022/08/20 10:55:40;;;;;;;5.97;1.77;;;22.50;85.30;;;;;;5037336;28;20128;-43
2022/08/20 10:58:07;;;;;;;4.03;1.30;;;22.50;85.40;;;;;;5017773;28;20045;-44
2022/08/20 11:00:37;;;;;;;6.95;2.00;;;22.50;84.60;;;;;;5029450;28;20041;-47
2022/08/20 11:03:03;;;;;;;8.88;1.85;;;22.50;85.30;;;;;;5036457;28;20049;-49
2022/08/20 11:05:30;;;;;;;6.38;1.77;;;22.40;85.90;;;;;;5036716;28;20038;-40
2022/08/20 11:07:58;;;;;;;9.40;2.03;;;22.50;85.80;;;;;;5035166;28;20068;-44
2022/08/20 11:10:25;;;;;;;7.03;1.80;;;22.50;85.20;;;;;;5021916;28;20029;-40
2022/08/20 11:12:52;;;;;;;7.10;1.60;;;22.40;85.30;;;;;;5018265;28;20038;-48
2022/08/20 11:15:18;;;;;;;7.82;1.50;;;22.40;84.70;;;;;;5031481;28;20041;-40
2022/08/20 11:17:45;;;;;;;6.70;1.70;;;22.30;84.60;;;;;;5034035;28;20149;-43
2022/08/20 11:20:12;;;;;;;4.80;1.83;;;22.30;85.30;;;;;;5021891;28;20044;-48
2022/08/20 11:22:39;;;;;;;6.10;1.90;;;22.30;84.70;;;;;;5031090;28;20041;-50
2022/08/20 11:25:05;;;;;;;8.85;1.77;;;22.40;84.80;;;;;;5034548;28;20041;-41
2022/08/20 11:27:32;;;;;;;4.93;1.67;;;22.50;85.00;;;;;;5034718;28;20406;-43
2022/08/20 11:29:59;;;;;;;5.30;1.73;;;22.70;84.60;;;;;;5036842;28;20045;-52
2022/08/20 11:32:26;;;;;;;5.25;1.25;;;22.70;85.10;;;;;;5053844;28;20543;-48
2022/08/20 11:34:52;;;;;;;5.95;1.75;;;22.80;84.70;;;;;;5044948;28;20041;-40
2022/08/20 11:37:19;;;;;;;5.70;1.95;;;23.00;85.00;;;;;;5050588;28;20037;-45
2022/08/20 11:39:46;;;;;;;9.43;1.95;;;23.10;83.60;;;;;;5021479;28;20049;-41
2022/08/20 11:42:13;;;;;;;6.30;1.73;;;23.10;83.30;;;;;;5014211;28;20045;-42
2022/08/20 11:44:39;;;;;;;9.20;1.67;;;23.20;83.00;;;;;;5013697;28;20126;-45
2022/08/20 11:47:06;;;;;;;6.53;1.73;;;23.30;83.90;;;;;;5027576;28;20045;-41
2022/08/20 11:49:33;;;;;;;6.63;2.45;;;23.30;83.40;;;;;;5041038;28;20037;-38
2022/08/20 11:52:00;;;;;;;5.50;1.95;;;23.20;81.60;;;;;;5032788;28;20036;-45
2022/08/20 11:54:28;;;;;;;4.25;1.60;;;23.10;81.70;;;;;;5026178;28;20042;-42
2022/08/20 11:56:58;;;;;;;6.30;1.80;;;23.00;82.90;;;;;;5027813;28;20038;-45
2022/08/20 11:59:25;;;;;;;5.25;1.60;;;23.20;82.60;;;;;;5022485;28;20045;-41
2022/08/20 12:01:53;;;;;;;6.80;1.70;;;23.40;82.50;;;;;;5032350;28;20467;-37
2022/08/20 12:04:30;;;;;;;4.45;1.58;;;23.50;81.10;;;;;;5031148;28;20119;-39
2022/08/20 12:07:00;;;;;;;4.60;1.35;;;23.60;79.70;;;;;;5033897;28;20048;-41
2022/08/20 12:09:27;;;;;;;4.43;1.40;;;23.60;79.70;;;;;;5020827;28;20124;-47
2022/08/20 12:11:54;;;;;;;6.70;1.63;;;23.50;79.90;;;;;;5033727;28;20056;-43
2022/08/20 12:14:21;;;;;;;9.98;1.70;;;23.40;80.70;;;;;;5030892;28;20044;-47
2022/08/20 12:16:48;;;;;;;3.88;1.40;;;23.40;80.70;;;;;;5035206;28;20459;-39
2022/08/20 12:19:14;;;;;;;6.47;1.92;;;23.40;80.50;;;;;;5030613;28;20139;-46
2022/08/20 12:21:41;;;;;;;5.93;1.33;;;23.40;80.20;;;;;;5032551;28;20099;-43
2022/08/20 12:24:08;;;;;;;3.15;1.30;;;23.40;80.20;;;;;;5027923;28;20091;-47
2022/08/20 12:26:34;;;;;;;3.95;1.38;;;23.50;80.40;;;;;;5033753;28;20055;-39
2022/08/20 12:29:01;;;;;;;6.55;1.50;;;23.60;79.50;;;;;;5015898;28;20433;-42
2022/08/20 12:31:28;;;;;;;4.68;1.60;;;23.80;78.60;;;;;;5017271;28;20061;-47
2022/08/20 12:33:55;;;;;;;5.47;1.40;;;23.90;79.10;;;;;;5033721;28;20045;-40
2022/08/20 12:36:22;;;;;;;6.07;1.40;;;23.90;79.50;;;;;;5027287;28;20037;-42
2022/08/20 12:38:48;;;;;;;5.82;1.58;;;24.10;78.40;;;;;;5033704;28;20056;-41
2022/08/20 12:41:15;;;;;;;4.40;1.35;;;24.10;78.00;;;;;;5034474;28;20052;-40
2022/08/20 12:43:42;;;;;;;5.63;2.00;;;24.30;78.00;;;;;;5032915;28;20400;-39
2022/08/20 12:46:09;;;;;;;4.28;1.50;;;24.40;78.30;;;;;;5026991;28;20052;-42
2022/08/20 12:48:35;;;;;;;5.03;1.67;;;24.50;77.80;;;;;;5033103;28;20048;-44
2022/08/20 12:51:02;;;;;;;4.22;1.23;;;24.60;76.60;;;;;;5042537;28;20037;-39
2022/08/20 12:53:29;;;;;;;3.88;1.00;;;24.60;77.20;;;;;;5032313;28;20033;-44
2022/08/20 12:55:56;;;;;;;5.13;1.23;;;24.60;76.40;;;;;;5033276;28;20042;-45
2022/08/20 12:58:23;;;;;;;7.82;1.50;;;24.60;76.60;;;;;;5030118;28;20037;-45
2022/08/20 13:00:50;;;;;;;3.88;1.25;;;24.60;76.80;;;;;;5029569;28;20111;-41
2022/08/20 13:03:17;;;;;;;5.13;1.58;;;24.60;76.20;;;;;;5029619;28;20052;-42
2022/08/20 13:05:44;;;;;;;5.00;1.23;;;24.60;76.00;;;;;;5031760;28;20041;-42
2022/08/20 13:08:10;;;;;;;5.25;1.60;;;24.70;76.00;;;;;;5031462;28;20052;-42
2022/08/20 13:10:41;;;;;;;4.47;1.30;;;24.70;76.40;;;;;;5033322;28;20037;-42
2022/08/20 13:13:07;;;;;;;5.05;1.35;;;24.70;76.20;;;;;;5034170;28;20046;-48
2022/08/20 13:15:34;;;;;;;3.72;1.30;;;24.80;76.80;;;;;;5031670;28;20042;-42
2022/08/20 13:18:01;;;;;;;4.97;1.20;;;24.80;76.80;;;;;;5030466;28;20049;-48
2022/08/20 13:20:28;;;;;;;4.10;1.33;;;24.90;76.00;;;;;;5026651;28;20061;-46
2022/08/20 13:22:59;;;;;;;3.42;1.20;;;25.00;76.70;;;;;;5026926;28;20041;-44
2022/08/20 13:25:26;;;;;;;4.15;1.30;;;25.00;75.90;;;;;;5020216;28;20096;-46
2022/08/20 13:27:53;;;;;;;4.68;1.45;;;25.00;75.00;;;;;;5017835;28;20448;-42
2022/08/20 13:30:20;;;;;;;4.45;1.17;;;25.00;75.00;;;;;;5025133;28;20038;-43
2022/08/20 13:32:46;;;;;;;6.65;1.48;;;24.90;75.60;;;;;;5033294;28;20038;-46
2022/08/20 13:35:13;;;;;;;4.72;1.42;;;25.00;75.00;;;;;;5033552;28;20388;-42
2022/08/20 13:37:40;;;;;;;5.97;1.25;;;25.00;75.30;;;;;;5033429;28;20049;-43
2022/08/20 13:40:07;;;;;;;3.85;1.30;;;25.00;74.90;;;;;;5026302;28;20614;-44
2022/08/20 13:42:34;;;;;;;8.18;1.20;;;24.90;75.60;;;;;;5014382;28;20044;-41
2022/08/20 13:45:01;;;;;;;5.38;1.33;;;24.90;75.30;;;;;;5013973;28;20054;-45
2022/08/20 13:47:28;;;;;;;5.45;1.42;;;24.90;75.50;;;;;;5028322;28;20436;-45
2022/08/20 13:49:55;;;;;;;4.25;1.40;;;25.10;74.90;;;;;;5031809;28;20038;-49
2022/08/20 13:52:22;;;;;;;3.25;1.15;;;25.20;75.20;;;;;;5031719;28;20040;-45
2022/08/20 13:54:49;;;;;;;5.90;1.63;;;25.20;74.70;;;;;;5033288;28;20038;-48
2022/08/20 13:57:16;;;;;;;5.57;1.65;;;25.20;74.30;;;;;;5032807;28;20045;-42
2022/08/20 13:59:43;;;;;;;4.80;1.20;;;25.20;75.00;;;;;;5016592;28;20041;-48
2022/08/20 14:02:09;;;;;;;4.78;1.50;;;25.30;75.60;;;;;;5022528;28;20366;-44
2022/08/20 14:04:36;;;;;;;5.32;1.58;;;25.50;74.60;;;;;;5026809;28;20504;-47
2022/08/20 14:07:03;;;;;;;6.30;1.40;;;25.60;73.50;;;;;;5023018;28;20096;-46
2022/08/20 14:09:29;;;;;;;4.90;1.40;;;25.60;73.20;;;;;;5026573;28;20042;-46
2022/08/20 14:11:56;;;;;;;6.38;1.80;;;25.60;72.60;;;;;;5032498;28;20048;-47
2022/08/20 14:14:23;;;;;;;6.07;1.30;;;25.60;73.20;;;;;;5033069;28;20104;-43
2022/08/20 14:16:50;;;;;;;5.45;1.30;;;25.80;73.90;;;;;;5033241;28;20116;-42
2022/08/20 14:19:17;;;;;;;4.55;1.23;;;25.90;72.40;;;;;;5034991;28;20045;-46
2022/08/20 14:21:44;;;;;;;8.57;1.60;;;25.90;72.70;;;;;;5053306;28;20041;-41
2022/08/20 14:24:11;;;;;;;3.38;0.90;;;25.90;72.40;;;;;;5053131;28;20045;-44
2022/08/20 14:26:37;;;;;;;4.85;1.30;;;25.70;72.10;;;;;;5052978;28;20079;-45
2022/08/20 14:29:04;;;;;;;4.72;1.10;;;25.40;72.80;;;;;;5053309;28;20102;-43
2022/08/20 14:31:31;;;;;;;4.93;1.40;;;25.40;73.70;;;;;;5053103;28;20041;-50
2022/08/20 14:33:58;;;;;;;3.83;1.48;;;25.50;73.10;;;;;;5055427;28;20052;-41
2022/08/20 14:36:24;;;;;;;6.68;1.52;;;25.50;73.20;;;;;;5056662;28;20040;-46
2022/08/20 14:38:51;;;;;;;8.73;1.30;;;25.60;73.60;;;;;;5056714;28;20037;-45
2022/08/20 14:41:18;;;;;;;6.63;1.35;;;25.60;73.80;;;;;;5056509;28;20053;-43
2022/08/20 14:43:45;;;;;;;9.90;1.75;;;25.60;72.70;;;;;;5056730;28;20049;-40
2022/08/20 14:46:11;;;;;;;4.18;1.30;;;25.50;73.20;;;;;;5056757;28;20107;-42
2022/08/20 14:48:38;;;;;;;5.53;1.52;;;25.30;72.80;;;;;;5056620;28;20041;-43
2022/08/20 14:51:08;;;;;;;2.78;1.10;;;25.30;73.20;;;;;;5055298;28;20041;-42
2022/08/20 14:53:36;;;;;;;6.70;1.38;;;25.30;73.70;;;;;;5056904;28;20037;-43
2022/08/20 14:56:06;;;;;;;4.75;1.15;;;25.30;73.10;;;;;;5056438;28;20116;-43
2022/08/20 14:58:33;;;;;;;4.10;1.23;;;25.40;73.20;;;;;;5056333;28;20041;-42
2022/08/20 15:00:59;;;;;;;4.43;1.25;;;25.40;73.70;;;;;;5056325;28;20487;-43
2022/08/20 15:03:29;;;;;;;5.38;1.23;;;25.40;73.20;;;;;;5056222;28;20052;-42
2022/08/20 15:05:56;;;;;;;5.60;1.20;;;25.40;73.10;;;;;;5056201;28;20455;-46
2022/08/20 15:08:23;;;;;;;4.85;1.35;;;25.40;73.70;;;;;;5056661;28;20422;-42
2022/08/20 15:10:54;;;;;;;4.22;1.25;;;25.40;73.00;;;;;;5055485;28;20037;-41
2022/08/20 15:13:21;;;;;;;3.67;1.15;;;25.40;73.00;;;;;;5056000;28;20045;-53
2022/08/20 15:15:47;;;;;;;4.63;1.48;;;25.30;73.10;;;;;;5056066;28;20045;-41
2022/08/20 15:18:14;;;;;;;4.07;1.45;;;25.30;72.90;;;;;;5055831;28;20395;-44
2022/08/20 15:20:41;;;;;;;5.78;1.60;;;25.20;72.70;;;;;;5055546;28;20090;-42
2022/08/20 15:23:08;;;;;;;5.53;1.38;;;25.20;73.00;;;;;;5015212;28;20116;-44
2022/08/20 15:25:34;;;;;;;5.55;1.60;;;25.30;73.70;;;;;;5016241;28;20053;-47
2022/08/20 15:28:03;;;;;;;5.18;1.50;;;25.30;73.50;;;;;;5016203;28;20038;-41
2022/08/20 15:30:31;;;;;;;4.75;1.50;;;25.30;73.40;;;;;;5016008;28;20042;-42
2022/08/20 15:32:58;;;;;;;6.53;1.40;;;25.20;73.50;;;;;;5015113;28;20045;-44
2022/08/20 15:35:25;;;;;;;6.15;1.38;;;25.10;73.20;;;;;;5016389;28;20129;-45
2022/08/20 15:37:52;;;;;;;5.68;1.75;;;25.20;73.20;;;;;;5015975;28;20038;-45
2022/08/20 15:40:20;;;;;;;4.43;1.65;;;25.20;73.30;;;;;;5015726;28;20077;-42
2022/08/20 15:42:53;;;;;;;5.30;1.60;;;25.10;73.20;;;;;;5015897;28;20081;-43
2022/08/20 15:45:20;;;;;;;8.10;3.75;;;25.10;73.10;;;;;;5015654;28;20049;-49
2022/08/20 15:47:47;;;;;;;5.30;1.85;;;25.20;73.20;;;;;;5015612;28;20076;-44
2022/08/20 15:50:14;;;;;;;6.15;2.35;;;25.30;73.20;;;;;;5035419;28;20044;-39
2022/08/20 15:52:41;;;;;;;4.07;1.67;;;25.30;73.50;;;;;;5055707;28;20041;-41
2022/08/20 15:55:08;;;;;;;6.55;1.60;;;25.30;73.10;;;;;;5055352;28;20490;-47
2022/08/20 15:57:34;;;;;;;5.35;1.52;;;25.40;72.90;;;;;;5055732;28;20045;-51
2022/08/20 16:00:01;;;;;;;3.95;1.33;;;25.40;73.60;;;;;;5055450;28;20045;-45
2022/08/20 16:02:29;;;;;;;4.80;1.38;;;25.40;73.00;;;;;;5055204;28;20515;-38
2022/08/20 16:04:56;;;;;;;5.30;1.10;;;25.40;72.50;;;;;;5054899;28;20396;-41
2022/08/20 16:07:23;;;;;;;5.63;1.48;;;25.40;72.50;;;;;;5055250;28;20049;-45
2022/08/20 16:09:50;;;;;;;4.35;1.63;;;25.20;72.30;;;;;;5054836;28;20040;-45
2022/08/20 16:12:17;;;;;;;7.45;1.58;;;25.10;72.80;;;;;;5055357;28;20037;-47
2022/08/20 16:14:44;;;;;;;7.78;1.40;;;25.20;73.30;;;;;;5055000;28;20052;-38
2022/08/20 16:17:11;;;;;;;5.93;1.83;;;25.30;72.90;;;;;;5054087;28;20357;-38
2022/08/20 16:19:38;;;;;;;5.90;1.52;;;25.30;73.00;;;;;;5046611;28;20045;-47
2022/08/20 16:22:05;;;;;;;4.97;1.38;;;25.60;73.00;;;;;;5030517;28;20044;-41
2022/08/20 16:24:31;;;;;;;7.68;2.63;;;25.80;73.20;;;;;;5033106;28;20065;-40
2022/08/20 16:27:00;;;;;;;8.65;2.88;;;26.20;74.50;;;;;;5028956;28;20049;-44
2022/08/20 16:29:26;;;;;;;7.80;1.77;;;26.20;75.00;;;;;;5031042;28;20034;-39
2022/08/20 16:31:53;;;;;;;8.10;2.05;;;26.20;75.40;;;;;;5030061;28;20040;-50
2022/08/20 16:34:20;;;;;;;5.50;1.90;;;26.50;75.30;;;;;;5028305;28;20458;-47
2022/08/20 16:37:00;;;;;;;5.68;1.80;;;26.30;75.20;;;;;;5033473;28;20124;-46
2022/08/20 16:39:30;;;;;;;8.15;2.10;;;26.00;76.20;;;;;;5031271;28;20072;-48
2022/08/20 16:42:00;;;;;;;10.30;2.40;;;25.80;77.00;;;;;;5034517;28;20072;-41
2022/08/20 16:44:31;;;;;;;7.65;2.40;;;25.60;77.60;;;;;;5031797;28;20041;-43
2022/08/20 16:46:58;;;;;;;8.40;2.28;;;25.70;78.00;;;;;;5015572;28;20046;-43
2022/08/20 16:49:25;;;;;;;8.57;2.10;;;26.20;78.20;;;;;;5021851;28;20037;-50
2022/08/20 16:51:52;;;;;;;6.35;2.03;;;26.50;76.50;;;;;;5037899;28;20037;-44
2022/08/20 16:54:21;;;;;;;6.95;1.95;;;26.40;76.30;;;;;;5034197;28;20049;-38
2022/08/20 16:56:56;;;;;;;10.05;2.67;;;26.50;75.90;;;;;;5037367;28;20041;-43
2022/08/20 16:59:23;;;;;;;7.50;2.38;;;26.90;75.40;;;;;;5033449;28;20103;-40
2022/08/20 17:01:52;;;;;;;5.90;1.90;;;27.30;73.50;;;;;;5033949;28;20500;-43
2022/08/20 17:04:27;;;;;;;5.47;1.92;;;27.70;72.80;;;;;;5032370;28;20049;-43
2022/08/20 17:06:53;;;;;;;7.45;1.73;;;27.90;70.30;;;;;;5032471;28;20041;-42
2022/08/20 17:09:20;;;;;;;10.00;2.00;;;28.20;70.60;;;;;;5034138;28;20038;-46
2022/08/20 17:11:49;;;;;;;8.65;2.38;;;28.30;70.20;;;;;;5033158;28;20104;-46
2022/08/20 17:14:16;;;;;;;8.73;2.47;;;28.30;71.00;;;;;;5032059;28;20037;-42
2022/08/20 17:16:43;;;;;;;6.47;2.00;;;28.50;70.40;;;;;;5041499;28;20086;-48
2022/08/20 17:19:09;;;;;;;10.98;2.10;;;28.40;70.40;;;;;;5053768;28;20029;-48
2022/08/20 17:21:37;;;;;;;8.00;1.85;;;27.80;71.10;;;;;;5032919;28;20037;-43
2022/08/20 17:24:03;;;;;;;5.43;2.08;;;27.80;71.50;;;;;;5030950;28;20083;-43
2022/08/20 17:26:30;;;;;;;10.10;2.45;;;27.80;71.80;;;;;;5031129;28;20042;-46
2022/08/20 17:28:57;;;;;;;9.63;3.05;;;28.00;71.70;;;;;;5041845;28;20041;-50
2022/08/20 17:31:23;;;;;;;5.57;2.10;;;28.20;72.10;;;;;;5033031;28;20041;-44
2022/08/20 17:34:04;;;;;;;7.22;2.20;;;28.30;71.40;;;;;;5031053;28;20484;-50
2022/08/20 17:36:33;;;;;;;9.07;2.30;;;28.20;71.30;;;;;;5033006;28;20041;-44
2022/08/20 17:38:59;;;;;;;6.88;2.00;;;28.20;71.80;;;;;;5030642;28;20037;-45
2022/08/20 17:41:26;;;;;;;6.78;1.88;;;28.30;71.80;;;;;;5022587;28;20053;-41
2022/08/20 17:43:53;;;;;;;9.10;2.25;;;28.30;71.80;;;;;;5024418;28;20034;-45
2022/08/20 17:46:20;;;;;;;6.53;2.15;;;28.10;71.60;;;;;;5040473;28;20072;-44
2022/08/20 17:48:47;;;;;;;6.38;2.08;;;28.00;71.50;;;;;;5052585;28;20495;-41
2022/08/20 17:51:13;;;;;;;6.65;1.85;;;27.90;71.90;;;;;;5028103;28;20045;-43
2022/08/20 17:53:40;;;;;;;6.45;1.88;;;27.80;72.10;;;;;;5028139;28;20044;-47
2022/08/20 17:56:07;;;;;;;8.43;1.92;;;27.80;71.40;;;;;;5033152;28;20041;-40
2022/08/20 17:58:34;;;;;;;6.20;1.80;;;27.80;71.80;;;;;;5028192;28;20044;-40
2022/08/20 18:01:00;;;;;;;9.98;2.55;;;27.70;72.00;;;;;;5032165;28;20053;-46
2022/08/20 18:03:27;;;;;;;5.70;1.90;;;27.70;72.10;;;;;;5032945;28;20049;-43
2022/08/20 18:05:54;;;;;;;7.57;1.98;;;27.70;72.20;;;;;;5033713;28;20423;-44
2022/08/20 18:08:21;;;;;;;7.95;2.10;;;27.60;71.80;;;;;;5035074;28;20049;-43
2022/08/20 18:10:48;;;;;;;5.40;1.52;;;27.50;71.80;;;;;;5037446;28;20128;-46
2022/08/20 18:13:15;;;;;;;5.57;1.70;;;27.20;72.30;;;;;;5037108;28;20041;-42
2022/08/20 18:15:41;;;;;;;8.52;1.90;;;26.90;73.10;;;;;;5039886;28;20041;-49
2022/08/20 18:18:08;;;;;;;6.15;1.80;;;26.70;73.40;;;;;;5056875;28;20041;-42
2022/08/20 18:20:35;;;;;;;7.68;1.75;;;26.50;74.10;;;;;;5054338;28;20051;-41
2022/08/20 18:23:03;;;;;;;8.10;2.00;;;26.30;74.30;;;;;;5055942;28;20048;-46
2022/08/20 18:25:32;;;;;;;5.88;1.67;;;26.10;74.50;;;;;;5055011;28;20059;-41
2022/08/20 18:28:02;;;;;;;8.27;1.90;;;26.00;75.00;;;;;;5055939;28;20065;-41
2022/08/20 18:30:30;;;;;;;5.75;1.90;;;25.60;75.50;;;;;;5055921;28;20472;-40
2022/08/20 18:32:56;;;;;;;7.70;2.00;;;25.30;76.10;;;;;;5054729;28;20379;-43
2022/08/20 18:35:23;;;;;;;6.03;1.85;;;25.00;76.60;;;;;;5055549;28;20392;-43
2022/08/20 18:37:51;;;;;;;7.10;2.00;;;24.80;77.40;;;;;;5056821;28;20049;-45
2022/08/20 18:40:18;;;;;;;7.28;2.03;;;24.60;78.10;;;;;;5057109;28;20043;-45
2022/08/20 18:42:45;;;;;;;8.52;2.15;;;24.40;78.70;;;;;;5055992;28;20052;-46
2022/08/20 18:45:11;;;;;;;9.77;2.40;;;24.10;79.40;;;;;;5057023;28;20519;-46
2022/08/20 18:47:39;;;;;;;9.35;2.25;;;23.90;80.20;;;;;;5056293;28;20041;-41
2022/08/20 18:50:05;;;;;;;7.70;1.80;;;23.70;80.50;;;;;;5055281;28;20041;-43
2022/08/20 18:52:42;;;;;;;6.13;2.05;;;23.40;81.00;;;;;;5056519;28;20447;-43
2022/08/20 18:55:09;;;;;;;6.88;2.20;;;23.20;81.60;;;;;;5056456;28;20450;-46
2022/08/20 18:57:36;;;;;;;7.38;2.13;;;23.10;82.40;;;;;;5056494;28;20098;-42
2022/08/20 19:00:10;;;;;;;8.45;2.30;;;23.00;82.70;;;;;;5056572;28;20049;-43
2022/08/20 19:02:37;;;;;;;6.72;2.15;;;22.90;83.40;;;;;;5056419;28;20051;-42
2022/08/20 19:05:04;;;;;;;9.05;2.03;;;22.80;83.00;;;;;;5056433;28;20048;-46
2022/08/20 19:07:31;;;;;;;8.57;1.98;;;22.70;83.40;;;;;;5056032;28;20049;-45
2022/08/20 19:10:14;;;;;;;8.60;2.20;;;22.50;83.50;;;;;;5055972;28;20565;-43
2022/08/20 19:12:55;;;;;;;8.23;2.05;;;22.40;83.90;;;;;;5056454;28;20047;-41
2022/08/20 19:15:22;;;;;;;8.88;2.33;;;22.30;84.10;;;;;;5056201;28;20040;-45
2022/08/20 19:17:49;;;;;;;8.52;2.20;;;22.20;84.30;;;;;;5055461;28;20451;-49
2022/08/20 19:20:16;;;;;;;9.48;2.20;;;22.10;84.50;;;;;;5055672;28;20049;-45
2022/08/20 19:22:43;;;;;;;9.57;2.40;;;22.10;84.50;;;;;;5043319;28;20050;-46
2022/08/20 19:25:10;;;;;;;7.47;2.30;;;22.00;85.10;;;;;;5018930;28;20045;-44
2022/08/20 19:27:37;;;;;;;6.80;2.25;;;21.90;85.20;;;;;;5036085;28;20041;-45
2022/08/20 19:30:04;;;;;;;8.38;2.10;;;21.80;85.60;;;;;;5035969;28;20107;-50
2022/08/20 19:32:31;;;;;;;6.90;2.33;;;21.80;85.60;;;;;;5036126;28;20045;-45
2022/08/20 19:34:57;;;;;;;8.80;1.80;;;21.70;85.90;;;;;;5036181;28;20030;-46
2022/08/20 19:37:24;;;;;;;6.05;2.03;;;21.60;86.30;;;;;;5034850;28;20049;-43
2022/08/20 19:40:10;;;;;;;7.63;1.85;;;21.50;86.60;;;;;;5035701;28;20045;-44
2022/08/20 19:42:37;;;;;;;9.48;2.33;;;21.50;86.50;;;;;;5035733;28;20381;-41
2022/08/20 19:45:04;;;;;;;8.95;2.00;;;21.40;87.10;;;;;;5035470;28;20057;-41
2022/08/20 19:47:30;;;;;;;10.25;2.55;;;21.30;87.30;;;;;;5035184;28;20053;-42
2022/08/20 19:49:57;;;;;;;10.32;2.25;;;21.30;87.10;;;;;;5047028;28;20041;-42
2022/08/20 19:52:24;;;;;;;12.57;2.67;;;21.20;87.60;;;;;;5055300;28;20040;-42
2022/08/20 19:54:51;;;;;;;10.20;2.30;;;21.10;88.20;;;;;;5055433;28;20095;-46
2022/08/20 19:57:18;;;;;;;6.75;2.45;;;21.00;87.80;;;;;;5054163;28;20045;-42
2022/08/20 19:59:44;;;;;;;9.98;2.60;;;20.90;88.10;;;;;;5054475;28;20464;-44
2022/08/20 20:02:11;;;;;;;8.60;2.55;;;20.90;88.10;;;;;;5055396;28;20040;-43
2022/08/20 20:04:47;;;;;;;6.93;2.38;;;20.80;88.70;;;;;;5054612;28;20033;-51
2022/08/20 20:07:23;;;;;;;7.45;2.15;;;20.70;88.80;;;;;;5055189;28;20045;-40
2022/08/20 20:09:50;;;;;;;9.75;2.50;;;20.70;89.00;;;;;;5054955;28;20099;-41
2022/08/20 20:12:16;;;;;;;9.02;2.30;;;20.60;89.10;;;;;;5054957;28;20416;-43
2022/08/20 20:14:48;;;;;;;12.30;2.22;;;20.60;89.50;;;;;;5055584;28;20070;-38
2022/08/20 20:17:15;;;;;;;10.57;2.30;;;20.60;89.80;;;;;;5055107;28;20129;-44
2022/08/20 20:19:48;;;;;;;13.32;2.50;;;20.50;90.10;;;;;;5055024;28;20072;-50
2022/08/20 20:22:15;;;;;;;10.57;2.42;;;20.40;90.20;;;;;;5054871;28;20067;-42
2022/08/20 20:24:45;;;;;;;9.75;2.30;;;20.40;90.30;;;;;;5055320;28;20033;-49
2022/08/20 20:27:13;;;;;;;11.48;2.47;;;20.30;90.30;;;;;;5053786;28;20037;-43
2022/08/20 20:29:45;;;;;;;11.82;2.80;;;20.30;90.40;;;;;;5054297;28;20059;-43
2022/08/20 20:32:18;;;;;;;8.00;2.20;;;20.20;90.60;;;;;;5053627;28;20052;-50
2022/08/20 20:34:45;;;;;;;7.38;2.47;;;20.20;90.90;;;;;;5053671;28;20088;-38
2022/08/20 20:37:21;;;;;;;13.43;3.00;;;20.10;90.90;;;;;;5054627;28;20076;-44
2022/08/20 20:40:08;;;;;;;10.48;2.47;;;20.00;91.30;;;;;;5054653;28;20043;-42
2022/08/20 20:42:45;;;;;;;11.77;2.83;;;20.00;91.20;;;;;;5054263;28;20098;-41
2022/08/20 20:45:12;;;;;;;11.02;2.63;;;20.00;91.40;;;;;;5052894;28;20388;-44
2022/08/20 20:47:39;;;;;;;11.88;2.58;;;19.90;91.50;;;;;;5053412;28;20041;-43
2022/08/20 20:50:06;;;;;;;9.75;2.40;;;19.90;91.60;;;;;;5052768;28;21257;-46
2022/08/20 20:52:32;;;;;;;9.13;2.40;;;19.80;91.70;;;;;;5054734;28;20051;-44
2022/08/20 20:54:59;;;;;;;10.68;3.13;;;19.80;92.00;;;;;;5054177;28;20044;-43
2022/08/20 20:57:26;;;;;;;9.68;2.70;;;19.70;92.00;;;;;;5054286;28;20045;-49
2022/08/20 21:00:03;;;;;;;10.68;2.58;;;19.70;92.30;;;;;;5054119;28;20041;-44
2022/08/20 21:02:32;;;;;;;13.07;2.85;;;19.60;92.50;;;;;;5054242;28;20037;-42
2022/08/20 21:04:59;;;;;;;10.90;2.50;;;19.60;92.50;;;;;;5054526;28;20041;-41
2022/08/20 21:07:25;;;;;;;11.15;2.83;;;19.50;92.90;;;;;;5053799;28;20045;-49
2022/08/20 21:09:52;;;;;;;13.23;2.88;;;19.50;93.00;;;;;;5053991;28;20494;-42
2022/08/20 21:12:20;;;;;;;11.18;2.83;;;19.50;93.20;;;;;;5053064;28;20056;-39
2022/08/20 21:14:47;;;;;;;11.57;3.03;;;19.40;93.20;;;;;;5054344;28;20048;-43
2022/08/20 21:17:14;;;;;;;15.75;2.75;;;19.40;93.40;;;;;;5053769;28;20450;-46
2022/08/20 21:19:40;;;;;;;13.05;2.80;;;19.40;93.60;;;;;;5052217;28;20043;-42
2022/08/20 21:22:10;;;;;;;16.98;3.60;;;19.30;93.70;;;;;;5053061;28;20539;-53
2022/08/20 21:24:37;;;;;;;11.48;2.60;;;19.30;94.00;;;;;;5053811;28;20071;-42
2022/08/20 21:27:04;;;;;;;10.10;2.95;;;19.20;94.00;;;;;;5052414;28;20492;-42
2022/08/20 21:29:31;;;;;;;11.50;2.95;;;19.20;94.30;;;;;;5053519;28;20041;-42
2022/08/20 21:31:58;;;;;;;12.90;3.35;;;19.20;94.20;;;;;;5052508;28;20036;-43
2022/08/20 21:34:25;;;;;;;9.38;2.75;;;19.10;94.30;;;;;;5053804;28;20091;-51
2022/08/20 21:36:52;;;;;;;11.13;2.70;;;19.10;94.50;;;;;;5053714;28;20045;-45
2022/08/20 21:39:20;;;;;;;10.65;2.75;;;19.10;94.60;;;;;;5053111;28;20403;-48
2022/08/20 21:41:46;;;;;;;10.85;2.58;;;19.00;94.60;;;;;;5053286;28;20041;-49
2022/08/20 21:44:15;;;;;;;13.20;3.05;;;19.00;94.70;;;;;;5052338;28;20120;-42
2022/08/20 21:46:46;;;;;;;16.92;3.47;;;19.00;94.90;;;;;;5053379;28;20051;-43
2022/08/20 21:49:14;;;;;;;10.88;3.08;;;19.00;94.90;;;;;;5052057;28;20460;-42
2022/08/20 21:51:41;;;;;;;14.07;3.13;;;18.90;94.80;;;;;;5053646;28;20045;-41
2022/08/20 21:54:07;;;;;;;12.80;3.40;;;18.90;95.10;;;;;;5052391;28;20033;-46
2022/08/20 21:56:34;;;;;;;12.27;2.78;;;18.90;94.90;;;;;;5052474;28;20041;-40
2022/08/20 21:59:02;;;;;;;14.50;2.88;;;18.90;95.20;;;;;;5052471;28;20045;-48
2022/08/20 22:01:31;;;;;;;9.48;2.40;;;18.90;95.20;;;;;;5052039;28;20098;-41
